createdAt,value
2017-07-30T00:00:55.090Z,95.20
2017-07-30T00:03:23.387Z,95.80
2017-07-30T00:05:51.629Z,95.70
2017-07-30T00:08:20.623Z,96.30
2017-07-30T00:10:49.671Z,96.60
2017-07-30T00:13:17.898Z,96.60
2017-07-30T00:15:46.125Z,97.00
2017-07-30T00:18:14.371Z,97.20
2017-07-30T00:20:42.665Z,97.20
2017-07-30T00:23:10.882Z,97.50
2017-07-30T00:26:07.088Z,98.20
2017-07-30T00:28:35.319Z,97.80
2017-07-30T00:31:03.545Z,98.00
2017-07-30T00:33:31.829Z,98.70
2017-07-30T00:36:00.064Z,98.90
2017-07-30T00:38:28.292Z,99.10
2017-07-30T00:40:57.354Z,99.80
2017-07-30T00:43:25.577Z,99.80
2017-07-30T00:45:53.798Z,99.90
2017-07-30T00:48:22.090Z,99.90
2017-07-30T00:50:50.314Z,99.90
2017-07-30T00:53:39.560Z,99.90
2017-07-30T00:56:08.533Z,99.90
2017-07-30T00:58:36.772Z,99.90
2017-07-30T01:01:05.070Z,99.90
2017-07-30T01:03:33.295Z,99.90
2017-07-30T01:06:01.518Z,99.90
2017-07-30T01:08:29.774Z,99.90
2017-07-30T01:10:58.070Z,99.90
2017-07-30T01:13:26.304Z,99.90
2017-07-30T01:15:54.542Z,99.90
2017-07-30T01:18:22.824Z,99.90
2017-07-30T01:21:09.126Z,99.90
2017-07-30T01:23:38.124Z,99.90
2017-07-30T01:26:06.364Z,99.90
2017-07-30T01:28:35.015Z,99.90
2017-07-30T01:31:03.254Z,99.90
2017-07-30T01:33:32.242Z,99.90
2017-07-30T01:36:08.839Z,99.90
2017-07-30T01:38:37.081Z,99.90
2017-07-30T01:41:06.082Z,99.90
2017-07-30T01:43:35.145Z,99.90
2017-07-30T01:46:03.376Z,99.90
2017-07-30T01:48:31.616Z,99.90
2017-07-30T01:51:00.683Z,99.90
2017-07-30T01:53:28.916Z,99.90
2017-07-30T01:55:57.137Z,99.90
2017-07-30T01:58:25.431Z,99.90
2017-07-30T02:00:53.661Z,99.90
2017-07-30T02:03:21.885Z,99.90
2017-07-30T02:05:50.908Z,99.90
2017-07-30T02:08:19.127Z,99.90
2017-07-30T02:10:47.422Z,99.90
2017-07-30T02:13:15.641Z,99.90
2017-07-30T02:15:43.875Z,99.90
2017-07-30T02:18:12.930Z,99.90
2017-07-30T02:20:41.148Z,99.90
2017-07-30T02:23:10.147Z,99.90
2017-07-30T02:25:39.199Z,99.90
2017-07-30T02:28:07.427Z,99.90
2017-07-30T02:33:36.504Z,99.90
2017-07-30T02:36:04.786Z,99.90
2017-07-30T02:38:33.005Z,99.90
2017-07-30T02:41:01.294Z,99.90
2017-07-30T02:43:29.517Z,99.90
2017-07-30T02:45:58.504Z,99.90
2017-07-30T02:48:26.795Z,99.90
2017-07-30T02:50:55.784Z,99.90
2017-07-30T02:53:24.766Z,99.90
2017-07-30T02:55:53.059Z,99.90
2017-07-30T02:58:22.048Z,99.90
2017-07-30T03:00:51.044Z,99.90
2017-07-30T03:03:20.103Z,99.90
2017-07-30T03:05:48.326Z,99.90
2017-07-30T03:08:16.544Z,99.90
2017-07-30T03:10:44.840Z,99.90
2017-07-30T03:13:13.063Z,99.90
2017-07-30T03:16:07.490Z,99.90
2017-07-30T03:18:35.723Z,99.90
2017-07-30T03:21:03.952Z,99.90
2017-07-30T03:23:32.586Z,99.90
2017-07-30T03:26:00.805Z,99.90
2017-07-30T03:28:29.022Z,99.90
2017-07-30T03:30:57.284Z,99.90
2017-07-30T03:33:26.325Z,99.90
2017-07-30T03:35:54.543Z,99.90
2017-07-30T03:38:23.594Z,99.90
2017-07-30T03:41:08.575Z,99.90
2017-07-30T03:43:36.863Z,99.90
2017-07-30T03:46:05.082Z,99.90
2017-07-30T03:48:33.310Z,99.90
2017-07-30T03:51:01.597Z,99.90
2017-07-30T03:53:29.836Z,99.90
2017-07-30T03:58:58.387Z,99.90
2017-07-30T04:01:27.381Z,99.90
2017-07-30T04:03:56.375Z,99.90
2017-07-30T04:06:24.627Z,99.90
2017-07-30T04:09:07.601Z,99.90
2017-07-30T04:11:35.824Z,99.90
2017-07-30T04:14:04.055Z,99.90
2017-07-30T04:16:32.325Z,99.90
2017-07-30T04:19:00.621Z,99.90
2017-07-30T04:21:28.834Z,99.90
2017-07-30T04:24:08.256Z,99.90
2017-07-30T04:26:36.466Z,99.90
2017-07-30T04:29:04.690Z,99.90
2017-07-30T04:31:32.933Z,99.90
2017-07-30T04:34:01.205Z,99.90
2017-07-30T04:36:29.430Z,99.90
2017-07-30T04:39:10.207Z,99.90
2017-07-30T04:41:38.417Z,99.90
2017-07-30T04:44:06.649Z,99.90
2017-07-30T04:46:34.934Z,99.90
2017-07-30T04:49:03.164Z,99.90
2017-07-30T04:51:31.396Z,99.90
2017-07-30T04:54:00.446Z,99.90
2017-07-30T04:56:28.668Z,99.90
2017-07-30T04:58:56.888Z,99.90
2017-07-30T05:01:25.159Z,99.90
2017-07-30T05:03:53.381Z,99.90
2017-07-30T05:09:23.072Z,99.90
2017-07-30T05:11:51.286Z,99.90
2017-07-30T05:14:20.266Z,99.90
2017-07-30T05:16:48.524Z,99.90
2017-07-30T05:19:16.743Z,99.90
2017-07-30T05:21:45.808Z,99.90
2017-07-30T05:24:14.021Z,99.90
2017-07-30T05:26:42.244Z,99.90
2017-07-30T05:29:10.514Z,99.90
2017-07-30T05:31:38.731Z,99.90
2017-07-30T05:34:06.968Z,99.90
2017-07-30T05:36:35.259Z,99.90
2017-07-30T05:39:03.676Z,99.90
2017-07-30T05:41:31.885Z,99.90
2017-07-30T05:44:00.166Z,99.90
2017-07-30T05:49:29.288Z,99.90
2017-07-30T05:51:57.502Z,99.90
2017-07-30T05:54:26.478Z,99.90
2017-07-30T05:56:54.751Z,99.90
2017-07-30T05:59:22.957Z,99.90
2017-07-30T06:01:51.191Z,99.90
2017-07-30T06:04:19.482Z,99.90
2017-07-30T06:06:48.484Z,99.90
2017-07-30T06:09:17.461Z,99.90
2017-07-30T06:11:45.736Z,99.90
2017-07-30T06:14:13.973Z,99.90
2017-07-30T06:16:42.215Z,99.90
2017-07-30T06:19:10.529Z,99.90
2017-07-30T06:21:38.777Z,99.90
2017-07-30T06:24:07.006Z,99.90
2017-07-30T06:26:35.250Z,99.90
2017-07-30T06:29:10.200Z,99.90
2017-07-30T06:31:38.483Z,99.90
2017-07-30T06:34:06.715Z,99.90
2017-07-30T06:36:34.954Z,99.90
2017-07-30T06:39:04.015Z,99.90
2017-07-30T06:41:32.233Z,99.90
2017-07-30T06:44:08.555Z,99.90
2017-07-30T06:46:37.073Z,99.90
2017-07-30T06:49:06.054Z,99.90
2017-07-30T06:51:34.356Z,99.90
2017-07-30T06:54:02.587Z,99.90
2017-07-30T06:59:31.131Z,99.90
2017-07-30T07:01:59.350Z,99.90
2017-07-30T07:04:27.580Z,99.90
2017-07-30T07:06:55.862Z,99.90
2017-07-30T07:09:24.095Z,99.90
2017-07-30T07:11:52.409Z,99.90
2017-07-30T07:14:20.706Z,99.90
2017-07-30T07:16:48.953Z,99.90
2017-07-30T07:19:17.207Z,99.90
2017-07-30T07:21:45.489Z,99.90
2017-07-30T07:24:14.481Z,99.90
2017-07-30T07:26:43.483Z,99.90
2017-07-30T07:29:11.749Z,99.90
2017-07-30T07:31:40.758Z,99.90
2017-07-30T07:34:09.051Z,99.90
2017-07-30T07:36:37.286Z,99.90
2017-07-30T07:39:09.567Z,99.90
2017-07-30T07:41:37.818Z,99.90
2017-07-30T07:44:06.051Z,99.90
2017-07-30T07:46:34.355Z,99.90
2017-07-30T07:49:02.607Z,99.90
2017-07-30T07:51:30.855Z,98.50
2017-07-30T07:54:09.540Z,97.30
2017-07-30T07:56:37.778Z,96.00
2017-07-30T07:59:05.996Z,94.40
2017-07-30T08:01:34.281Z,94.00
2017-07-30T08:04:03.288Z,94.30
2017-07-30T08:06:32.527Z,94.30
2017-07-30T08:09:00.819Z,94.20
2017-07-30T08:11:29.046Z,93.90
2017-07-30T08:13:57.260Z,91.70
2017-07-30T08:16:25.554Z,92.00
2017-07-30T08:18:53.798Z,91.40
2017-07-30T08:24:22.266Z,89.20
2017-07-30T08:26:50.509Z,87.80
2017-07-30T08:29:18.764Z,88.60
2017-07-30T08:31:47.032Z,86.30
2017-07-30T08:34:15.318Z,86.90
2017-07-30T08:36:43.548Z,85.50
2017-07-30T08:39:11.795Z,86.30
2017-07-30T08:41:40.862Z,87.00
2017-07-30T08:44:09.080Z,87.00
2017-07-30T08:46:38.079Z,84.70
2017-07-30T08:49:10.123Z,84.50
2017-07-30T08:51:39.112Z,83.70
2017-07-30T08:54:07.339Z,83.70
2017-07-30T08:56:35.668Z,84.10
2017-07-30T08:59:04.729Z,82.70
2017-07-30T09:01:32.981Z,82.70
2017-07-30T09:07:02.196Z,79.40
2017-07-30T09:09:30.484Z,79.40
2017-07-30T09:11:58.713Z,76.30
2017-07-30T09:14:27.718Z,74.00
2017-07-30T09:16:56.032Z,73.80
2017-07-30T09:19:24.261Z,75.20
2017-07-30T09:21:53.259Z,72.30
2017-07-30T09:24:21.680Z,72.50
2017-07-30T09:26:49.921Z,73.70
2017-07-30T09:29:18.173Z,71.80
2017-07-30T09:34:48.098Z,70.40
2017-07-30T09:37:17.109Z,70.80
2017-07-30T09:39:45.357Z,70.70
2017-07-30T09:42:13.667Z,71.20
2017-07-30T09:44:41.891Z,69.80
2017-07-30T09:47:10.118Z,68.70
2017-07-30T09:49:38.367Z,69.90
2017-07-30T09:52:07.423Z,67.30
2017-07-30T09:54:35.649Z,67.00
2017-07-30T09:57:04.634Z,68.60
2017-07-30T10:02:34.413Z,66.70
2017-07-30T10:05:02.653Z,66.80
2017-07-30T10:07:31.714Z,66.20
2017-07-30T10:09:59.945Z,66.20
2017-07-30T10:12:28.169Z,65.70
2017-07-30T10:15:09.839Z,66.00
2017-07-30T10:17:38.069Z,66.00
2017-07-30T10:20:06.312Z,63.70
2017-07-30T10:22:34.620Z,63.40
2017-07-30T10:25:02.876Z,64.80
2017-07-30T10:30:31.836Z,60.90
2017-07-30T10:33:00.089Z,60.90
2017-07-30T10:35:28.327Z,60.40
2017-07-30T10:37:56.608Z,61.60
2017-07-30T10:40:25.644Z,61.70
2017-07-30T10:43:08.050Z,61.50
2017-07-30T10:45:36.293Z,61.10
2017-07-30T10:48:04.514Z,58.70
2017-07-30T10:50:32.795Z,59.20
2017-07-30T10:53:01.267Z,58.30
2017-07-30T10:55:29.498Z,58.80
2017-07-30T10:57:57.796Z,58.90
2017-07-30T11:00:26.013Z,58.20
2017-07-30T11:02:54.829Z,57.70
2017-07-30T11:05:23.886Z,58.30
2017-07-30T11:07:52.126Z,58.10
2017-07-30T11:10:20.370Z,57.10
2017-07-30T11:12:49.404Z,57.50
2017-07-30T11:15:17.661Z,57.50
2017-07-30T11:17:45.957Z,57.00
2017-07-30T11:20:14.187Z,57.30
2017-07-30T11:23:09.381Z,56.80
2017-07-30T11:26:08.019Z,56.30
2017-07-30T11:28:36.277Z,55.60
2017-07-30T11:31:04.490Z,56.80
2017-07-30T11:33:32.796Z,57.30
2017-07-30T11:36:01.810Z,56.30
2017-07-30T11:41:30.700Z,55.60
2017-07-30T11:43:58.932Z,55.60
2017-07-30T11:46:27.170Z,56.40
2017-07-30T11:48:56.216Z,56.50
2017-07-30T11:51:24.462Z,56.50
2017-07-30T11:53:52.718Z,56.10
2017-07-30T11:56:21.010Z,56.30
2017-07-30T11:58:49.275Z,56.00
2017-07-30T12:01:17.517Z,55.80
2017-07-30T12:03:45.819Z,54.90
2017-07-30T12:06:14.881Z,57.40
2017-07-30T12:08:43.127Z,57.30
2017-07-30T12:11:11.353Z,54.30
2017-07-30T12:13:39.660Z,55.80
2017-07-30T12:16:07.904Z,52.60
2017-07-30T12:18:36.150Z,52.40
2017-07-30T12:21:10.657Z,52.00
2017-07-30T12:23:38.888Z,49.90
2017-07-30T12:26:07.921Z,50.80
2017-07-30T12:28:36.225Z,50.80
2017-07-30T12:31:04.454Z,52.00
2017-07-30T12:33:32.678Z,50.90
2017-07-30T12:36:09.094Z,50.70
2017-07-30T12:38:37.317Z,51.10
2017-07-30T12:41:05.644Z,49.40
2017-07-30T12:43:33.943Z,47.70
2017-07-30T12:46:02.168Z,48.10
2017-07-30T12:48:30.423Z,47.70
2017-07-30T12:50:59.492Z,47.50
2017-07-30T12:53:27.771Z,47.60
2017-07-30T12:55:55.994Z,45.40
2017-07-30T12:58:24.315Z,47.20
2017-07-30T13:00:52.569Z,47.70
2017-07-30T13:03:20.814Z,46.90
2017-07-30T13:05:49.106Z,46.80
2017-07-30T13:08:17.344Z,46.10
2017-07-30T13:10:45.569Z,47.10
2017-07-30T13:13:13.868Z,46.70
2017-07-30T13:15:42.101Z,46.70
2017-07-30T13:18:10.332Z,46.70
2017-07-30T13:20:38.624Z,46.50
2017-07-30T13:23:06.852Z,47.90
2017-07-30T13:25:35.102Z,46.90
2017-07-30T13:28:03.401Z,47.90
2017-07-30T13:30:31.639Z,47.60
2017-07-30T13:32:59.875Z,46.80
2017-07-30T13:35:28.185Z,47.90
2017-07-30T13:37:57.203Z,48.40
2017-07-30T13:40:25.447Z,47.90
2017-07-30T13:42:53.695Z,45.90
2017-07-30T13:48:23.030Z,48.00
2017-07-30T13:50:51.263Z,47.10
2017-07-30T13:53:19.566Z,46.40
2017-07-30T13:55:47.820Z,46.50
2017-07-30T13:58:16.055Z,45.70
2017-07-30T14:00:45.121Z,45.10
2017-07-30T14:03:13.340Z,45.60
2017-07-30T14:05:41.566Z,46.30
2017-07-30T14:08:09.860Z,46.70
2017-07-30T14:10:38.082Z,45.80
2017-07-30T14:13:09.789Z,45.40
2017-07-30T14:15:38.021Z,45.70
2017-07-30T14:18:06.234Z,44.90
2017-07-30T14:20:34.534Z,44.10
2017-07-30T14:23:02.788Z,45.10
2017-07-30T14:28:30.933Z,44.20
2017-07-30T14:30:59.205Z,44.10
2017-07-30T14:33:27.501Z,41.70
2017-07-30T14:35:55.815Z,43.10
2017-07-30T14:38:24.075Z,41.20
2017-07-30T14:40:52.313Z,42.00
2017-07-30T14:43:20.570Z,41.60
2017-07-30T14:45:49.583Z,42.30
2017-07-30T14:48:17.824Z,42.20
2017-07-30T14:50:46.090Z,41.10
2017-07-30T14:53:14.327Z,39.80
2017-07-30T14:56:09.076Z,42.40
2017-07-30T14:58:38.080Z,43.40
2017-07-30T15:01:06.342Z,43.40
2017-07-30T15:03:34.617Z,43.40
2017-07-30T15:06:03.612Z,44.20
2017-07-30T15:08:31.913Z,44.20
2017-07-30T15:11:00.150Z,44.90
2017-07-30T15:13:28.398Z,44.60
2017-07-30T15:15:56.955Z,45.70
2017-07-30T15:18:25.231Z,44.30
2017-07-30T15:24:07.200Z,43.30
2017-07-30T15:26:35.418Z,42.20
2017-07-30T15:29:03.664Z,42.00
2017-07-30T15:31:32.706Z,40.50
2017-07-30T15:34:00.942Z,40.30
2017-07-30T15:36:29.194Z,39.20
2017-07-30T15:38:57.547Z,38.70
2017-07-30T15:41:25.821Z,40.40
2017-07-30T15:43:54.057Z,38.60
2017-07-30T15:46:22.357Z,39.50
2017-07-30T15:49:10.027Z,41.30
2017-07-30T15:52:07.323Z,41.90
2017-07-30T15:54:35.542Z,41.80
2017-07-30T15:57:03.794Z,39.40
2017-07-30T15:59:32.036Z,38.70
2017-07-30T16:02:00.276Z,38.60
2017-07-30T16:04:28.563Z,39.30
2017-07-30T16:06:56.820Z,36.90
2017-07-30T16:09:25.072Z,38.20
2017-07-30T16:11:53.331Z,37.20
2017-07-30T16:14:21.596Z,39.40
2017-07-30T16:17:09.046Z,38.30
2017-07-30T16:20:07.364Z,39.00
2017-07-30T16:22:35.581Z,36.10
2017-07-30T16:25:03.858Z,37.70
2017-07-30T16:27:32.094Z,36.50
2017-07-30T16:30:00.319Z,37.00
2017-07-30T16:32:28.622Z,36.20
2017-07-30T16:34:56.855Z,36.10
2017-07-30T16:37:25.081Z,36.80
2017-07-30T16:39:53.423Z,35.90
2017-07-30T16:42:21.717Z,36.80
2017-07-30T16:45:09.534Z,35.40
2017-07-30T16:48:07.586Z,33.60
2017-07-30T16:50:35.880Z,36.00
2017-07-30T16:53:04.140Z,34.30
2017-07-30T16:55:32.425Z,35.40
2017-07-30T16:58:00.727Z,37.70
2017-07-30T17:00:28.967Z,38.60
2017-07-30T17:03:10.589Z,39.50
2017-07-30T17:05:38.839Z,40.70
2017-07-30T17:08:08.040Z,41.00
2017-07-30T17:10:36.345Z,39.80
2017-07-30T17:13:21.465Z,42.30
2017-07-30T17:16:08.894Z,40.90
2017-07-30T17:18:38.108Z,41.70
2017-07-30T17:21:08.016Z,41.30
2017-07-30T17:23:36.299Z,42.20
2017-07-30T17:26:04.547Z,40.40
2017-07-30T17:28:32.777Z,39.90
2017-07-30T17:31:01.034Z,41.20
2017-07-30T17:33:29.611Z,39.40
2017-07-30T17:35:57.912Z,41.40
2017-07-30T17:38:26.146Z,44.90
2017-07-30T17:44:08.428Z,43.50
2017-07-30T17:46:36.737Z,44.10
2017-07-30T17:49:04.958Z,44.30
2017-07-30T17:51:33.191Z,44.20
2017-07-30T17:54:01.501Z,43.80
2017-07-30T17:59:31.226Z,45.50
2017-07-30T18:01:59.521Z,45.50
2017-07-30T18:04:27.766Z,43.90
2017-07-30T18:06:56.018Z,44.20
2017-07-30T18:09:24.554Z,45.80
2017-07-30T18:12:08.065Z,46.20
2017-07-30T18:14:36.376Z,46.10
2017-07-30T18:17:04.615Z,47.10
2017-07-30T18:19:32.861Z,45.50
2017-07-30T18:22:01.157Z,46.00
2017-07-30T18:24:29.404Z,45.60
2017-07-30T18:26:57.651Z,46.10
2017-07-30T18:29:26.740Z,46.90
2017-07-30T18:31:54.994Z,47.00
2017-07-30T18:34:23.238Z,45.20
2017-07-30T18:39:52.355Z,45.80
2017-07-30T18:42:20.657Z,46.30
2017-07-30T18:44:48.883Z,48.80
2017-07-30T18:47:17.101Z,48.10
2017-07-30T18:49:45.384Z,47.70
2017-07-30T18:52:13.707Z,49.10
2017-07-30T18:55:07.560Z,48.30
2017-07-30T18:57:36.634Z,50.60
2017-07-30T19:00:05.609Z,49.30
2017-07-30T19:02:33.846Z,49.30
2017-07-30T19:08:02.925Z,52.70
2017-07-30T19:10:31.180Z,52.80
2017-07-30T19:12:59.415Z,52.60
2017-07-30T19:15:27.688Z,52.00
2017-07-30T19:17:55.942Z,50.40
2017-07-30T19:20:24.986Z,51.30
2017-07-30T19:22:53.269Z,51.80
2017-07-30T19:25:21.609Z,52.50
2017-07-30T19:27:49.835Z,52.70
2017-07-30T19:30:18.050Z,52.80
2017-07-30T19:32:47.115Z,55.20
2017-07-30T19:35:15.342Z,55.20
2017-07-30T19:37:43.591Z,54.60
2017-07-30T19:40:11.898Z,54.90
2017-07-30T19:42:40.149Z,55.10
2017-07-30T19:45:08.412Z,55.30
2017-07-30T19:47:37.479Z,55.00
2017-07-30T19:50:08.578Z,55.00
2017-07-30T19:52:36.889Z,55.50
2017-07-30T19:55:05.139Z,56.70
2017-07-30T19:57:33.389Z,56.40
2017-07-30T20:00:01.680Z,56.50
2017-07-30T20:02:29.922Z,56.70
2017-07-30T20:04:58.492Z,54.90
2017-07-30T20:07:26.791Z,56.20
2017-07-30T20:09:56.714Z,55.80
2017-07-30T20:12:24.952Z,55.80
2017-07-30T20:14:53.397Z,55.90
2017-07-30T20:17:21.632Z,56.60
2017-07-30T20:19:50.640Z,57.90
2017-07-30T20:22:18.935Z,57.60
2017-07-30T20:24:47.174Z,57.60
2017-07-30T20:27:15.430Z,56.80
2017-07-30T20:30:09.350Z,57.00
2017-07-30T20:33:08.085Z,57.90
2017-07-30T20:35:36.380Z,57.50
2017-07-30T20:38:04.631Z,57.00
2017-07-30T20:40:32.883Z,56.50
2017-07-30T20:43:08.963Z,56.60
2017-07-30T20:45:37.202Z,56.10
2017-07-30T20:48:05.442Z,56.40
2017-07-30T20:50:33.697Z,57.30
2017-07-30T20:53:01.919Z,56.80
2017-07-30T20:55:30.145Z,56.70
2017-07-30T20:57:58.419Z,58.10
2017-07-30T21:03:26.605Z,59.20
2017-07-30T21:05:54.854Z,59.10
2017-07-30T21:08:24.853Z,59.90
2017-07-30T21:10:53.123Z,60.50
2017-07-30T21:13:22.122Z,61.00
2017-07-30T21:15:50.358Z,60.90
2017-07-30T21:18:18.640Z,61.30
2017-07-30T21:20:46.861Z,61.40
2017-07-30T21:23:15.102Z,61.20
2017-07-30T21:25:44.155Z,61.90
2017-07-30T21:28:12.381Z,61.90
2017-07-30T21:30:41.372Z,64.70
2017-07-30T21:33:10.400Z,60.60
2017-07-30T21:35:38.626Z,60.40
2017-07-30T21:38:07.626Z,61.30
2017-07-30T21:40:36.698Z,60.50
2017-07-30T21:43:04.931Z,60.30
2017-07-30T21:45:33.158Z,59.70
2017-07-30T21:48:01.422Z,59.70
2017-07-30T21:50:29.642Z,60.40
2017-07-30T21:53:10.362Z,59.30
2017-07-30T21:55:38.597Z,60.60
2017-07-30T21:58:06.813Z,60.00
2017-07-30T22:00:35.061Z,61.00
2017-07-30T22:03:03.301Z,59.60
2017-07-30T22:05:31.556Z,58.40
2017-07-30T22:08:08.884Z,59.40
2017-07-30T22:11:07.704Z,59.40
2017-07-30T22:13:36.179Z,60.00
2017-07-30T22:16:04.412Z,58.80
2017-07-30T22:18:33.402Z,62.70
2017-07-30T22:21:08.734Z,62.70
2017-07-30T22:23:37.733Z,61.60
2017-07-30T22:26:05.967Z,61.60
2017-07-30T22:28:34.228Z,60.90
2017-07-30T22:31:09.512Z,61.60
2017-07-30T22:33:38.564Z,58.70
2017-07-30T22:36:10.082Z,58.60
2017-07-30T22:38:38.319Z,57.90
2017-07-30T22:41:06.592Z,60.00
2017-07-30T22:43:34.825Z,59.20
2017-07-30T22:46:03.042Z,62.10
2017-07-30T22:51:31.900Z,58.60
2017-07-30T22:54:00.131Z,61.80
2017-07-30T22:56:29.126Z,58.30
2017-07-30T22:58:58.163Z,60.30
2017-07-30T23:04:29.797Z,60.00
2017-07-30T23:06:58.791Z,64.20
2017-07-30T23:09:27.795Z,61.50
2017-07-30T23:11:56.822Z,62.80
2017-07-30T23:14:25.060Z,62.60
2017-07-30T23:17:08.701Z,64.20
2017-07-30T23:22:16.898Z,63.50
2017-07-30T23:25:08.655Z,64.20
2017-07-30T23:27:36.902Z,63.40
2017-07-30T23:30:05.147Z,62.40
2017-07-30T23:32:33.361Z,62.80
2017-07-30T23:35:02.598Z,62.80
2017-07-30T23:37:30.819Z,61.80
2017-07-30T23:40:11.380Z,62.80
2017-07-30T23:42:39.617Z,63.30
2017-07-30T23:45:09.251Z,64.80
2017-07-30T23:47:37.510Z,64.30
2017-07-30T23:50:05.735Z,64.10
2017-07-30T23:52:34.736Z,67.30
2017-07-30T23:55:09.954Z,65.50
2017-07-30T23:57:38.173Z,65.40
